sensor_id;sensor_type;location;lat;lon;timestamp;temperature;humidity
29939;DHT22;16799;50.844;5.304;2023-07-09T00:02:01;23.80;99.90
29939;DHT22;16799;50.844;5.304;2023-07-09T00:04:27;23.80;99.90
29939;DHT22;16799;50.844;5.304;2023-07-09T00:06:55;23.60;99.90
29939;DHT22;16799;50.844;5.304;2023-07-09T00:09:23;23.40;99.90
29939;DHT22;16799;50.844;5.304;2023-07-09T00:11:49;23.40;99.90
29939;DHT22;16799;50.844;5.304;2023-07-09T00:14:16;23.60;99.90
29939;DHT22;16799;50.844;5.304;2023-07-09T00:16:44;23.50;99.90
29939;DHT22;16799;50.844;5.304;2023-07-09T00:19:17;23.50;99.90
29939;DHT22;16799;50.844;5.304;2023-07-09T00:21:44;23.50;99.90
29939;DHT22;16799;50.844;5.304;2023-07-09T00:24:13;23.30;99.90
29939;DHT22;16799;50.844;5.304;2023-07-09T00:26:40;23.20;99.90
29939;DHT22;16799;50.844;5.304;2023-07-09T00:29:10;23.20;99.90
29939;DHT22;16799;50.844;5.304;2023-07-09T00:31:37;23.30;99.90
29939;DHT22;16799;50.844;5.304;2023-07-09T00:34:10;23.40;99.90
29939;DHT22;16799;50.844;5.304;2023-07-09T00:36:40;23.60;99.90
29939;DHT22;16799;50.844;5.304;2023-07-09T00:39:22;23.60;99.90
29939;DHT22;16799;50.844;5.304;2023-07-09T00:41:49;23.50;99.90
29939;DHT22;16799;50.844;5.304;2023-07-09T00:49:39;23.20;99.90
29939;DHT22;16799;50.844;5.304;2023-07-09T00:52:27;23.20;99.90
29939;DHT22;16799;50.844;5.304;2023-07-09T00:54:58;23.20;99.90
29939;DHT22;16799;50.844;5.304;2023-07-09T00:57:26;23.20;99.90
29939;DHT22;16799;50.844;5.304;2023-07-09T00:59:57;23.20;99.90
29939;DHT22;16799;50.844;5.304;2023-07-09T01:02:24;23.30;99.90
29939;DHT22;16799;50.844;5.304;2023-07-09T01:04:51;23.30;99.90
29939;DHT22;16799;50.844;5.304;2023-07-09T01:07:19;23.30;99.90
29939;DHT22;16799;50.844;5.304;2023-07-09T01:09:45;23.40;99.90
29939;DHT22;16799;50.844;5.304;2023-07-09T01:12:12;23.40;99.90
29939;DHT22;16799;50.844;5.304;2023-07-09T01:14:39;23.40;99.90
29939;DHT22;16799;50.844;5.304;2023-07-09T01:17:06;23.40;99.90
29939;DHT22;16799;50.844;5.304;2023-07-09T01:19:42;23.50;99.90
29939;DHT22;16799;50.844;5.304;2023-07-09T01:22:16;23.30;99.90
29939;DHT22;16799;50.844;5.304;2023-07-09T01:24:59;23.20;99.90
29939;DHT22;16799;50.844;5.304;2023-07-09T01:27:36;23.30;99.90
29939;DHT22;16799;50.844;5.304;2023-07-09T01:30:30;23.20;99.90
29939;DHT22;16799;50.844;5.304;2023-07-09T01:32:59;23.00;99.90
29939;DHT22;16799;50.844;5.304;2023-07-09T01:35:27;23.10;99.90
29939;DHT22;16799;50.844;5.304;2023-07-09T01:37:54;22.90;99.90
29939;DHT22;16799;50.844;5.304;2023-07-09T01:40:23;22.80;99.90
29939;DHT22;16799;50.844;5.304;2023-07-09T01:42:50;22.80;99.90
29939;DHT22;16799;50.844;5.304;2023-07-09T01:45:17;22.70;99.90
29939;DHT22;16799;50.844;5.304;2023-07-09T01:47:43;22.70;99.90
29939;DHT22;16799;50.844;5.304;2023-07-09T01:50:10;22.70;99.90
29939;DHT22;16799;50.844;5.304;2023-07-09T01:52:38;22.70;99.90
29939;DHT22;16799;50.844;5.304;2023-07-09T01:55:09;22.70;99.90
29939;DHT22;16799;50.844;5.304;2023-07-09T01:57:35;22.70;99.90
29939;DHT22;16799;50.844;5.304;2023-07-09T02:00:09;22.70;99.90
29939;DHT22;16799;50.844;5.304;2023-07-09T02:02:36;22.70;99.90
29939;DHT22;16799;50.844;5.304;2023-07-09T02:05:04;22.60;99.90
29939;DHT22;16799;50.844;5.304;2023-07-09T02:07:30;22.70;99.90
29939;DHT22;16799;50.844;5.304;2023-07-09T02:09:56;22.60;99.90
29939;DHT22;16799;50.844;5.304;2023-07-09T02:12:22;22.60;99.90
29939;DHT22;16799;50.844;5.304;2023-07-09T02:14:48;22.60;99.90
29939;DHT22;16799;50.844;5.304;2023-07-09T02:17:14;22.40;99.90
29939;DHT22;16799;50.844;5.304;2023-07-09T02:19:41;22.40;99.90
29939;DHT22;16799;50.844;5.304;2023-07-09T02:22:07;22.50;99.90
29939;DHT22;16799;50.844;5.304;2023-07-09T02:24:33;22.60;99.90
29939;DHT22;16799;50.844;5.304;2023-07-09T02:27:02;22.50;99.90
29939;DHT22;16799;50.844;5.304;2023-07-09T02:29:29;22.40;99.90
29939;DHT22;16799;50.844;5.304;2023-07-09T02:31:57;22.30;99.90
29939;DHT22;16799;50.844;5.304;2023-07-09T02:34:26;22.40;99.90
29939;DHT22;16799;50.844;5.304;2023-07-09T02:36:53;22.30;99.90
29939;DHT22;16799;50.844;5.304;2023-07-09T02:39:19;22.40;99.90
29939;DHT22;16799;50.844;5.304;2023-07-09T02:41:45;22.30;99.90
29939;DHT22;16799;50.844;5.304;2023-07-09T02:44:11;22.20;99.90
29939;DHT22;16799;50.844;5.304;2023-07-09T02:46:36;22.10;99.90
29939;DHT22;16799;50.844;5.304;2023-07-09T02:49:06;22.10;99.90
29939;DHT22;16799;50.844;5.304;2023-07-09T02:51:32;22.20;99.90
29939;DHT22;16799;50.844;5.304;2023-07-09T02:54:00;22.20;99.90
29939;DHT22;16799;50.844;5.304;2023-07-09T02:56:26;22.10;99.90
29939;DHT22;16799;50.844;5.304;2023-07-09T02:58:52;22.10;99.90
29939;DHT22;16799;50.844;5.304;2023-07-09T03:01:18;22.10;99.90
29939;DHT22;16799;50.844;5.304;2023-07-09T03:03:47;22.00;99.90
29939;DHT22;16799;50.844;5.304;2023-07-09T03:06:12;22.00;99.90
29939;DHT22;16799;50.844;5.304;2023-07-09T03:08:38;22.00;99.90
29939;DHT22;16799;50.844;5.304;2023-07-09T03:11:11;21.90;99.90
29939;DHT22;16799;50.844;5.304;2023-07-09T03:13:37;21.90;99.90
29939;DHT22;16799;50.844;5.304;2023-07-09T03:16:03;22.00;99.90
29939;DHT22;16799;50.844;5.304;2023-07-09T03:18:29;21.90;99.90
29939;DHT22;16799;50.844;5.304;2023-07-09T03:20:54;22.00;99.90
29939;DHT22;16799;50.844;5.304;2023-07-09T03:23:20;21.90;99.90
29939;DHT22;16799;50.844;5.304;2023-07-09T03:25:46;21.90;99.90
29939;DHT22;16799;50.844;5.304;2023-07-09T03:28:12;21.80;99.90
29939;DHT22;16799;50.844;5.304;2023-07-09T03:30:42;21.70;99.90
29939;DHT22;16799;50.844;5.304;2023-07-09T03:33:08;21.70;99.90
29939;DHT22;16799;50.844;5.304;2023-07-09T03:35:33;21.60;99.90
29939;DHT22;16799;50.844;5.304;2023-07-09T03:38:00;21.60;99.90
29939;DHT22;16799;50.844;5.304;2023-07-09T03:40:26;21.60;99.90
29939;DHT22;16799;50.844;5.304;2023-07-09T03:42:51;21.60;99.90
29939;DHT22;16799;50.844;5.304;2023-07-09T03:45:17;21.60;99.90
29939;DHT22;16799;50.844;5.304;2023-07-09T03:47:43;21.60;99.90
29939;DHT22;16799;50.844;5.304;2023-07-09T03:50:10;21.60;99.90
29939;DHT22;16799;50.844;5.304;2023-07-09T03:52:36;21.60;99.90
29939;DHT22;16799;50.844;5.304;2023-07-09T03:55:03;21.60;99.90
29939;DHT22;16799;50.844;5.304;2023-07-09T03:57:33;21.60;99.90
29939;DHT22;16799;50.844;5.304;2023-07-09T03:59:59;21.60;99.90
29939;DHT22;16799;50.844;5.304;2023-07-09T04:02:24;21.60;99.90
29939;DHT22;16799;50.844;5.304;2023-07-09T04:04:50;21.60;99.90
29939;DHT22;16799;50.844;5.304;2023-07-09T04:07:16;21.60;99.90
29939;DHT22;16799;50.844;5.304;2023-07-09T04:09:42;21.60;99.90
29939;DHT22;16799;50.844;5.304;2023-07-09T04:12:08;21.60;99.90
29939;DHT22;16799;50.844;5.304;2023-07-09T04:14:34;21.60;99.90
29939;DHT22;16799;50.844;5.304;2023-07-09T04:17:00;21.70;99.90
29939;DHT22;16799;50.844;5.304;2023-07-09T04:19:25;21.60;99.90
29939;DHT22;16799;50.844;5.304;2023-07-09T04:21:51;21.70;99.90
29939;DHT22;16799;50.844;5.304;2023-07-09T04:24:18;21.80;99.90
29939;DHT22;16799;50.844;5.304;2023-07-09T04:26:44;21.80;99.90
29939;DHT22;16799;50.844;5.304;2023-07-09T04:29:10;21.90;99.90
29939;DHT22;16799;50.844;5.304;2023-07-09T04:31:36;21.80;99.90
29939;DHT22;16799;50.844;5.304;2023-07-09T04:34:03;21.80;99.90
29939;DHT22;16799;50.844;5.304;2023-07-09T04:36:29;21.80;99.90
29939;DHT22;16799;50.844;5.304;2023-07-09T04:38:54;21.90;99.90
29939;DHT22;16799;50.844;5.304;2023-07-09T04:41:20;22.10;99.90
29939;DHT22;16799;50.844;5.304;2023-07-09T04:43:46;22.00;99.90
29939;DHT22;16799;50.844;5.304;2023-07-09T04:46:12;21.90;99.90
29939;DHT22;16799;50.844;5.304;2023-07-09T04:48:37;22.10;99.90
29939;DHT22;16799;50.844;5.304;2023-07-09T04:51:04;22.10;99.90
29939;DHT22;16799;50.844;5.304;2023-07-09T04:53:29;22.40;99.90
29939;DHT22;16799;50.844;5.304;2023-07-09T04:55:55;22.60;99.90
29939;DHT22;16799;50.844;5.304;2023-07-09T04:58:21;22.40;99.90
29939;DHT22;16799;50.844;5.304;2023-07-09T05:00:47;22.50;99.90
29939;DHT22;16799;50.844;5.304;2023-07-09T05:03:13;22.80;99.90
29939;DHT22;16799;50.844;5.304;2023-07-09T05:05:43;22.90;99.90
29939;DHT22;16799;50.844;5.304;2023-07-09T05:08:08;22.90;99.90
29939;DHT22;16799;50.844;5.304;2023-07-09T05:10:34;22.90;99.90
29939;DHT22;16799;50.844;5.304;2023-07-09T05:13:05;23.00;99.90
29939;DHT22;16799;50.844;5.304;2023-07-09T05:15:31;23.00;99.90
29939;DHT22;16799;50.844;5.304;2023-07-09T05:17:56;23.20;99.90
29939;DHT22;16799;50.844;5.304;2023-07-09T05:20:22;23.30;99.90
29939;DHT22;16799;50.844;5.304;2023-07-09T05:22:48;23.40;99.90
29939;DHT22;16799;50.844;5.304;2023-07-09T05:25:13;23.40;99.90
29939;DHT22;16799;50.844;5.304;2023-07-09T05:27:39;23.60;99.90
29939;DHT22;16799;50.844;5.304;2023-07-09T05:30:07;23.80;99.90
29939;DHT22;16799;50.844;5.304;2023-07-09T05:32:32;23.90;99.90
29939;DHT22;16799;50.844;5.304;2023-07-09T05:34:58;24.00;99.90
29939;DHT22;16799;50.844;5.304;2023-07-09T05:37:24;24.30;99.90
29939;DHT22;16799;50.844;5.304;2023-07-09T05:39:49;24.40;99.90
29939;DHT22;16799;50.844;5.304;2023-07-09T05:42:15;24.60;99.90
29939;DHT22;16799;50.844;5.304;2023-07-09T05:44:41;24.70;99.90
29939;DHT22;16799;50.844;5.304;2023-07-09T05:47:06;24.80;99.90
29939;DHT22;16799;50.844;5.304;2023-07-09T05:49:33;25.00;99.90
29939;DHT22;16799;50.844;5.304;2023-07-09T05:51:58;25.20;99.90
29939;DHT22;16799;50.844;5.304;2023-07-09T05:54:24;25.30;99.90
29939;DHT22;16799;50.844;5.304;2023-07-09T05:56:50;25.40;99.90
29939;DHT22;16799;50.844;5.304;2023-07-09T05:59:15;25.40;99.90
29939;DHT22;16799;50.844;5.304;2023-07-09T06:01:41;25.50;99.90
29939;DHT22;16799;50.844;5.304;2023-07-09T06:04:06;25.60;99.90
29939;DHT22;16799;50.844;5.304;2023-07-09T06:06:32;25.70;99.90
29939;DHT22;16799;50.844;5.304;2023-07-09T06:08:58;25.90;99.90
29939;DHT22;16799;50.844;5.304;2023-07-09T06:11:23;26.10;99.90
29939;DHT22;16799;50.844;5.304;2023-07-09T06:13:49;26.30;99.90
29939;DHT22;16799;50.844;5.304;2023-07-09T06:16:15;26.50;99.90
29939;DHT22;16799;50.844;5.304;2023-07-09T06:18:41;26.70;99.90
29939;DHT22;16799;50.844;5.304;2023-07-09T06:21:07;26.70;99.90
29939;DHT22;16799;50.844;5.304;2023-07-09T06:23:34;26.80;99.90
29939;DHT22;16799;50.844;5.304;2023-07-09T06:26:00;26.90;99.90
29939;DHT22;16799;50.844;5.304;2023-07-09T06:28:27;27.00;99.90
29939;DHT22;16799;50.844;5.304;2023-07-09T06:30:56;27.00;99.90
29939;DHT22;16799;50.844;5.304;2023-07-09T06:33:23;27.00;99.90
29939;DHT22;16799;50.844;5.304;2023-07-09T06:35:52;27.20;99.90
29939;DHT22;16799;50.844;5.304;2023-07-09T06:38:18;27.50;99.90
29939;DHT22;16799;50.844;5.304;2023-07-09T06:40:44;27.60;99.90
29939;DHT22;16799;50.844;5.304;2023-07-09T06:43:10;27.50;99.90
29939;DHT22;16799;50.844;5.304;2023-07-09T06:45:35;27.50;99.90
29939;DHT22;16799;50.844;5.304;2023-07-09T06:48:01;27.70;99.90
29939;DHT22;16799;50.844;5.304;2023-07-09T06:50:27;27.60;99.90
29939;DHT22;16799;50.844;5.304;2023-07-09T06:52:53;27.70;99.90
29939;DHT22;16799;50.844;5.304;2023-07-09T06:55:19;27.90;99.90
29939;DHT22;16799;50.844;5.304;2023-07-09T06:57:44;27.80;99.90
29939;DHT22;16799;50.844;5.304;2023-07-09T07:00:10;28.00;99.90
29939;DHT22;16799;50.844;5.304;2023-07-09T07:02:36;28.20;99.90
29939;DHT22;16799;50.844;5.304;2023-07-09T07:05:02;28.40;99.90
29939;DHT22;16799;50.844;5.304;2023-07-09T07:07:28;28.20;99.90
29939;DHT22;16799;50.844;5.304;2023-07-09T07:09:54;28.10;99.90
29939;DHT22;16799;50.844;5.304;2023-07-09T07:12:27;28.30;99.90
29939;DHT22;16799;50.844;5.304;2023-07-09T07:14:54;28.50;99.90
29939;DHT22;16799;50.844;5.304;2023-07-09T07:17:20;28.90;99.90
29939;DHT22;16799;50.844;5.304;2023-07-09T07:19:46;29.10;99.90
29939;DHT22;16799;50.844;5.304;2023-07-09T07:22:12;28.90;99.90
29939;DHT22;16799;50.844;5.304;2023-07-09T07:24:37;28.80;99.90
29939;DHT22;16799;50.844;5.304;2023-07-09T07:27:03;29.20;97.90
29939;DHT22;16799;50.844;5.304;2023-07-09T07:29:29;29.40;96.90
29939;DHT22;16799;50.844;5.304;2023-07-09T07:31:55;29.30;98.30
29939;DHT22;16799;50.844;5.304;2023-07-09T07:34:20;29.40;99.60
29939;DHT22;16799;50.844;5.304;2023-07-09T07:36:47;29.20;98.10
29939;DHT22;16799;50.844;5.304;2023-07-09T07:39:12;29.10;98.20
29939;DHT22;16799;50.844;5.304;2023-07-09T07:41:38;29.10;98.10
29939;DHT22;16799;50.844;5.304;2023-07-09T07:44:05;29.10;99.90
29939;DHT22;16799;50.844;5.304;2023-07-09T07:46:32;28.90;99.90
29939;DHT22;16799;50.844;5.304;2023-07-09T07:48:58;28.80;99.90
29939;DHT22;16799;50.844;5.304;2023-07-09T07:51:24;29.10;99.90
29939;DHT22;16799;50.844;5.304;2023-07-09T07:53:49;29.30;99.90
29939;DHT22;16799;50.844;5.304;2023-07-09T07:56:15;29.30;99.90
29939;DHT22;16799;50.844;5.304;2023-07-09T07:58:41;29.10;99.90
29939;DHT22;16799;50.844;5.304;2023-07-09T08:01:07;29.00;99.90
29939;DHT22;16799;50.844;5.304;2023-07-09T08:03:32;28.90;99.90
29939;DHT22;16799;50.844;5.304;2023-07-09T08:05:58;28.80;99.90
29939;DHT22;16799;50.844;5.304;2023-07-09T08:08:24;29.20;99.90
29939;DHT22;16799;50.844;5.304;2023-07-09T08:10:50;29.50;99.90
29939;DHT22;16799;50.844;5.304;2023-07-09T08:13:16;29.80;99.90
29939;DHT22;16799;50.844;5.304;2023-07-09T08:15:42;29.90;99.90
29939;DHT22;16799;50.844;5.304;2023-07-09T08:18:08;30.00;99.90
29939;DHT22;16799;50.844;5.304;2023-07-09T08:20:33;30.00;99.90
29939;DHT22;16799;50.844;5.304;2023-07-09T08:22:59;29.90;99.90
29939;DHT22;16799;50.844;5.304;2023-07-09T08:25:25;29.90;99.90
29939;DHT22;16799;50.844;5.304;2023-07-09T08:27:51;29.90;99.90
29939;DHT22;16799;50.844;5.304;2023-07-09T08:30:16;30.00;99.10
29939;DHT22;16799;50.844;5.304;2023-07-09T08:32:42;30.20;99.90
29939;DHT22;16799;50.844;5.304;2023-07-09T08:35:08;30.40;99.70
29939;DHT22;16799;50.844;5.304;2023-07-09T08:37:35;30.30;99.00
29939;DHT22;16799;50.844;5.304;2023-07-09T08:40:01;30.20;99.90
29939;DHT22;16799;50.844;5.304;2023-07-09T08:42:35;30.20;99.90
29939;DHT22;16799;50.844;5.304;2023-07-09T08:45:19;30.10;99.10
29939;DHT22;16799;50.844;5.304;2023-07-09T08:48:03;30.70;99.90
29939;DHT22;16799;50.844;5.304;2023-07-09T08:50:39;31.20;97.10
29939;DHT22;16799;50.844;5.304;2023-07-09T08:53:16;31.20;96.70
29939;DHT22;16799;50.844;5.304;2023-07-09T08:55:45;31.20;95.50
29939;DHT22;16799;50.844;5.304;2023-07-09T08:58:25;31.40;95.80
29939;DHT22;16799;50.844;5.304;2023-07-09T09:01:02;32.00;95.80
29939;DHT22;16799;50.844;5.304;2023-07-09T09:06:15;32.30;90.30
29939;DHT22;16799;50.844;5.304;2023-07-09T09:11:48;33.10;91.20
29939;DHT22;16799;50.844;5.304;2023-07-09T09:14:34;32.90;89.70
29939;DHT22;16799;50.844;5.304;2023-07-09T09:17:01;32.90;89.40
29939;DHT22;16799;50.844;5.304;2023-07-09T09:19:30;33.50;90.00
29939;DHT22;16799;50.844;5.304;2023-07-09T09:22:05;33.30;85.40
29939;DHT22;16799;50.844;5.304;2023-07-09T09:24:41;33.90;84.40
29939;DHT22;16799;50.844;5.304;2023-07-09T09:27:08;34.10;83.30
29939;DHT22;16799;50.844;5.304;2023-07-09T09:29:34;34.10;82.10
29939;DHT22;16799;50.844;5.304;2023-07-09T09:32:11;34.50;80.50
29939;DHT22;16799;50.844;5.304;2023-07-09T09:34:42;34.30;81.50
29939;DHT22;16799;50.844;5.304;2023-07-09T09:37:11;34.00;80.60
29939;DHT22;16799;50.844;5.304;2023-07-09T09:39:39;34.20;81.90
29939;DHT22;16799;50.844;5.304;2023-07-09T09:42:11;34.90;82.20
29939;DHT22;16799;50.844;5.304;2023-07-09T09:44:43;35.30;85.00
29939;DHT22;16799;50.844;5.304;2023-07-09T09:47:11;35.50;78.00
29939;DHT22;16799;50.844;5.304;2023-07-09T09:49:41;35.50;76.80
29939;DHT22;16799;50.844;5.304;2023-07-09T09:52:16;35.20;81.20
29939;DHT22;16799;50.844;5.304;2023-07-09T09:55:10;35.00;78.60
29939;DHT22;16799;50.844;5.304;2023-07-09T09:57:37;34.70;77.70
29939;DHT22;16799;50.844;5.304;2023-07-09T10:00:03;34.90;78.60
29939;DHT22;16799;50.844;5.304;2023-07-09T10:02:39;35.40;76.90
29939;DHT22;16799;50.844;5.304;2023-07-09T10:05:14;34.90;74.00
29939;DHT22;16799;50.844;5.304;2023-07-09T10:07:47;34.90;78.70
29939;DHT22;16799;50.844;5.304;2023-07-09T10:10:20;35.50;74.40
29939;DHT22;16799;50.844;5.304;2023-07-09T10:12:52;35.80;73.70
29939;DHT22;16799;50.844;5.304;2023-07-09T10:15:42;36.20;73.90
29939;DHT22;16799;50.844;5.304;2023-07-09T10:18:36;36.30;74.00
29939;DHT22;16799;50.844;5.304;2023-07-09T10:21:14;35.40;73.80
29939;DHT22;16799;50.844;5.304;2023-07-09T10:24:10;35.00;73.30
29939;DHT22;16799;50.844;5.304;2023-07-09T10:26:53;36.00;71.80
29939;DHT22;16799;50.844;5.304;2023-07-09T10:32:11;37.00;68.50
29939;DHT22;16799;50.844;5.304;2023-07-09T10:37:14;37.90;67.90
29939;DHT22;16799;50.844;5.304;2023-07-09T10:40:03;38.40;65.20
29939;DHT22;16799;50.844;5.304;2023-07-09T10:42:45;38.70;65.20
29939;DHT22;16799;50.844;5.304;2023-07-09T10:45:13;37.80;63.50
29939;DHT22;16799;50.844;5.304;2023-07-09T10:47:44;36.70;66.20
29939;DHT22;16799;50.844;5.304;2023-07-09T10:50:18;36.50;65.50
29939;DHT22;16799;50.844;5.304;2023-07-09T10:52:52;36.90;65.30
29939;DHT22;16799;50.844;5.304;2023-07-09T10:58:04;38.60;63.60
29939;DHT22;16799;50.844;5.304;2023-07-09T11:00:37;37.70;63.90
29939;DHT22;16799;50.844;5.304;2023-07-09T11:03:37;37.20;64.40
29939;DHT22;16799;50.844;5.304;2023-07-09T11:06:10;37.30;68.50
29939;DHT22;16799;50.844;5.304;2023-07-09T11:08:39;38.40;67.20
29939;DHT22;16799;50.844;5.304;2023-07-09T11:11:09;38.40;66.30
29939;DHT22;16799;50.844;5.304;2023-07-09T11:13:37;37.40;66.20
29939;DHT22;16799;50.844;5.304;2023-07-09T11:16:06;36.70;69.20
29939;DHT22;16799;50.844;5.304;2023-07-09T11:18:34;36.30;71.90
29939;DHT22;16799;50.844;5.304;2023-07-09T11:21:14;35.70;71.30
29939;DHT22;16799;50.844;5.304;2023-07-09T11:23:50;35.30;74.30
29939;DHT22;16799;50.844;5.304;2023-07-09T11:26:34;35.10;73.50
29939;DHT22;16799;50.844;5.304;2023-07-09T11:31:38;33.70;77.40
29939;DHT22;16799;50.844;5.304;2023-07-09T11:36:33;33.40;81.00
29939;DHT22;16799;50.844;5.304;2023-07-09T11:38:59;33.30;81.60
29939;DHT22;16799;50.844;5.304;2023-07-09T11:41:45;33.00;82.40
29939;DHT22;16799;50.844;5.304;2023-07-09T11:44:26;33.20;81.70
29939;DHT22;16799;50.844;5.304;2023-07-09T11:47:23;33.20;85.00
29939;DHT22;16799;50.844;5.304;2023-07-09T11:50:01;33.00;84.30
29939;DHT22;16799;50.844;5.304;2023-07-09T11:54:54;32.50;90.30
29939;DHT22;16799;50.844;5.304;2023-07-09T11:57:21;32.30;90.90
29939;DHT22;16799;50.844;5.304;2023-07-09T11:59:47;32.00;91.90
29939;DHT22;16799;50.844;5.304;2023-07-09T12:02:19;31.40;92.80
29939;DHT22;16799;50.844;5.304;2023-07-09T12:04:48;31.00;95.20
29939;DHT22;16799;50.844;5.304;2023-07-09T12:07:15;30.70;95.70
29939;DHT22;16799;50.844;5.304;2023-07-09T12:09:46;30.50;95.50
29939;DHT22;16799;50.844;5.304;2023-07-09T12:12:24;30.10;96.80
29939;DHT22;16799;50.844;5.304;2023-07-09T12:14:50;29.70;97.90
29939;DHT22;16799;50.844;5.304;2023-07-09T12:17:16;29.50;99.50
29939;DHT22;16799;50.844;5.304;2023-07-09T12:19:42;29.30;99.90
29939;DHT22;16799;50.844;5.304;2023-07-09T12:22:18;29.20;99.90
29939;DHT22;16799;50.844;5.304;2023-07-09T12:24:45;29.10;99.90
29939;DHT22;16799;50.844;5.304;2023-07-09T12:27:22;29.10;99.90
29939;DHT22;16799;50.844;5.304;2023-07-09T12:29:53;28.90;99.90
29939;DHT22;16799;50.844;5.304;2023-07-09T12:32:19;28.80;99.90
29939;DHT22;16799;50.844;5.304;2023-07-09T12:34:50;28.70;99.90
29939;DHT22;16799;50.844;5.304;2023-07-09T12:37:16;28.50;99.90
29939;DHT22;16799;50.844;5.304;2023-07-09T12:39:43;28.60;99.90
29939;DHT22;16799;50.844;5.304;2023-07-09T12:42:16;28.50;99.90
29939;DHT22;16799;50.844;5.304;2023-07-09T12:44:42;28.30;99.90
29939;DHT22;16799;50.844;5.304;2023-07-09T12:47:15;28.00;99.90
29939;DHT22;16799;50.844;5.304;2023-07-09T12:49:45;27.80;99.90
29939;DHT22;16799;50.844;5.304;2023-07-09T12:52:22;27.50;99.90
29939;DHT22;16799;50.844;5.304;2023-07-09T12:54:57;27.20;99.90
29939;DHT22;16799;50.844;5.304;2023-07-09T12:57:25;27.00;99.90
29939;DHT22;16799;50.844;5.304;2023-07-09T12:59:51;26.80;99.90
29939;DHT22;16799;50.844;5.304;2023-07-09T13:02:23;26.60;99.90
29939;DHT22;16799;50.844;5.304;2023-07-09T13:04:50;26.40;99.90
29939;DHT22;16799;50.844;5.304;2023-07-09T13:07:33;26.10;99.90
29939;DHT22;16799;50.844;5.304;2023-07-09T13:10:06;25.70;99.90
29939;DHT22;16799;50.844;5.304;2023-07-09T13:12:33;25.30;99.90
29939;DHT22;16799;50.844;5.304;2023-07-09T13:15:00;24.90;99.90
29939;DHT22;16799;50.844;5.304;2023-07-09T13:17:31;24.60;99.90
29939;DHT22;16799;50.844;5.304;2023-07-09T13:19:57;24.50;99.90
29939;DHT22;16799;50.844;5.304;2023-07-09T13:22:23;24.40;99.90
29939;DHT22;16799;50.844;5.304;2023-07-09T13:24:50;24.30;99.90
29939;DHT22;16799;50.844;5.304;2023-07-09T13:27:16;24.30;99.90
29939;DHT22;16799;50.844;5.304;2023-07-09T13:29:42;24.40;99.90
29939;DHT22;16799;50.844;5.304;2023-07-09T13:32:13;24.50;99.90
29939;DHT22;16799;50.844;5.304;2023-07-09T13:34:39;24.60;99.90
29939;DHT22;16799;50.844;5.304;2023-07-09T13:37:08;24.70;99.90
29939;DHT22;16799;50.844;5.304;2023-07-09T13:39:37;24.80;99.90
29939;DHT22;16799;50.844;5.304;2023-07-09T13:42:03;25.00;99.90
29939;DHT22;16799;50.844;5.304;2023-07-09T13:44:29;25.30;99.90
29939;DHT22;16799;50.844;5.304;2023-07-09T13:46:58;25.50;99.90
29939;DHT22;16799;50.844;5.304;2023-07-09T13:49:26;25.70;99.90
29939;DHT22;16799;50.844;5.304;2023-07-09T13:51:55;26.00;99.90
29939;DHT22;16799;50.844;5.304;2023-07-09T13:54:24;26.10;99.90
29939;DHT22;16799;50.844;5.304;2023-07-09T13:56:50;26.20;99.90
29939;DHT22;16799;50.844;5.304;2023-07-09T13:59:24;26.00;99.90
29939;DHT22;16799;50.844;5.304;2023-07-09T14:01:52;26.00;99.90
29939;DHT22;16799;50.844;5.304;2023-07-09T14:04:20;26.20;99.90
29939;DHT22;16799;50.844;5.304;2023-07-09T14:06:46;26.30;99.90
29939;DHT22;16799;50.844;5.304;2023-07-09T14:09:12;26.00;99.90
29939;DHT22;16799;50.844;5.304;2023-07-09T14:11:43;25.80;99.90
29939;DHT22;16799;50.844;5.304;2023-07-09T14:14:20;25.90;99.90
29939;DHT22;16799;50.844;5.304;2023-07-09T14:16:47;25.80;99.90
29939;DHT22;16799;50.844;5.304;2023-07-09T14:19:18;25.50;99.90
29939;DHT22;16799;50.844;5.304;2023-07-09T14:21:45;25.40;99.90
29939;DHT22;16799;50.844;5.304;2023-07-09T14:24:21;25.30;99.90
29939;DHT22;16799;50.844;5.304;2023-07-09T14:26:52;25.70;99.90
29939;DHT22;16799;50.844;5.304;2023-07-09T14:29:18;26.20;99.90
29939;DHT22;16799;50.844;5.304;2023-07-09T14:31:45;26.60;99.90
29939;DHT22;16799;50.844;5.304;2023-07-09T14:34:19;26.50;99.90
29939;DHT22;16799;50.844;5.304;2023-07-09T14:36:47;26.80;99.90
29939;DHT22;16799;50.844;5.304;2023-07-09T14:39:13;27.20;99.90
29939;DHT22;16799;50.844;5.304;2023-07-09T14:41:39;27.60;99.90
29939;DHT22;16799;50.844;5.304;2023-07-09T14:44:28;27.90;99.90
29939;DHT22;16799;50.844;5.304;2023-07-09T14:46:57;28.30;99.90
29939;DHT22;16799;50.844;5.304;2023-07-09T14:49:24;28.90;99.90
29939;DHT22;16799;50.844;5.304;2023-07-09T14:51:50;29.70;99.20
29939;DHT22;16799;50.844;5.304;2023-07-09T14:54:28;30.20;98.40
29939;DHT22;16799;50.844;5.304;2023-07-09T14:56:55;30.90;96.80
29939;DHT22;16799;50.844;5.304;2023-07-09T14:59:23;31.80;92.10
29939;DHT22;16799;50.844;5.304;2023-07-09T15:01:49;32.10;91.70
29939;DHT22;16799;50.844;5.304;2023-07-09T15:06:51;34.20;83.20
29939;DHT22;16799;50.844;5.304;2023-07-09T15:09:21;34.90;80.70
29939;DHT22;16799;50.844;5.304;2023-07-09T15:11:49;35.10;78.50
29939;DHT22;16799;50.844;5.304;2023-07-09T15:14:16;34.90;76.80
29939;DHT22;16799;50.844;5.304;2023-07-09T15:16:42;34.70;78.00
29939;DHT22;16799;50.844;5.304;2023-07-09T15:19:14;34.30;78.50
29939;DHT22;16799;50.844;5.304;2023-07-09T15:21:41;33.70;81.80
29939;DHT22;16799;50.844;5.304;2023-07-09T15:24:32;34.00;81.60
29939;DHT22;16799;50.844;5.304;2023-07-09T15:26:58;33.90;82.00
29939;DHT22;16799;50.844;5.304;2023-07-09T15:29:25;34.40;80.40
29939;DHT22;16799;50.844;5.304;2023-07-09T15:31:51;35.50;77.20
29939;DHT22;16799;50.844;5.304;2023-07-09T15:34:17;37.10;72.00
29939;DHT22;16799;50.844;5.304;2023-07-09T15:36:48;38.00;70.50
29939;DHT22;16799;50.844;5.304;2023-07-09T15:39:15;38.20;69.50
29939;DHT22;16799;50.844;5.304;2023-07-09T15:41:41;37.50;71.20
29939;DHT22;16799;50.844;5.304;2023-07-09T15:44:14;38.10;66.30
29939;DHT22;16799;50.844;5.304;2023-07-09T15:46:47;38.50;65.70
29939;DHT22;16799;50.844;5.304;2023-07-09T15:49:14;38.80;63.20
29939;DHT22;16799;50.844;5.304;2023-07-09T15:51:40;39.40;63.50
29939;DHT22;16799;50.844;5.304;2023-07-09T15:54:24;39.20;63.00
29939;DHT22;16799;50.844;5.304;2023-07-09T15:56:51;40.50;60.20
29939;DHT22;16799;50.844;5.304;2023-07-09T15:59:30;41.10;58.20
29939;DHT22;16799;50.844;5.304;2023-07-09T16:01:57;41.30;57.60
29939;DHT22;16799;50.844;5.304;2023-07-09T16:04:23;40.50;57.20
29939;DHT22;16799;50.844;5.304;2023-07-09T16:06:49;40.10;57.70
29939;DHT22;16799;50.844;5.304;2023-07-09T16:09:15;40.60;57.80
29939;DHT22;16799;50.844;5.304;2023-07-09T16:11:47;41.10;56.40